Radar AviationWeather DUATS TFRs Wunderground Accuweather Weather.com

alt : Radar

TAFs

KDTW 260901Z 2609/2712 25007KT P6SM SCT090
   FM261500 27016G26KT P6SM BKN060
   FM270200 28007KT P6SM SCT040
KCLE 260854Z 2609/2712 24008KT P6SM SCT100
   FM261500 26014G22KT P6SM SCT040 BKN100
   FM261800 26015G25KT P6SM VCSH OVC040
   FM270000 26012KT P6SM BKN040
KJXN 260726Z 2607/2706 25007KT P6SM FEW060
   FM261300 27012KT P6SM BKN050
   FM261700 27014G25KT P6SM VCSH BKN050
   FM270000 29010KT P6SM BKN050
KFWA 260537Z 2606/2706 26007KT P6SM SCT080
   FM261500 28013G21KT P6SM FEW050 SCT100
   FM261800 28014G22KT P6SM SCT050 BKN100
   FM270000 28008KT P6SM BKN100
KFDY 260530Z 2606/2706 22005KT P6SM SCT050 OVC100
   FM261400 26014G22KT P6SM OVC050
   FM262300 27012KT P6SM SCT050 BKN100
KTOL 260530Z 2606/2706 22005KT P6SM SCT050 BKN100
   FM261400 25014G22KT P6SM OVC050
   FM262300 27012KT P6SM SCT050 BKN100

METARs

KDUH 261014Z AUTO 29004KT 10SM SCT065 SCT080 14/10 A3005 RMK AO2 T01370101
KJXN 260956Z AUTO 26006KT 10SM CLR 12/10 A3005 RMK AO2 SLP174 T01220100 $
KFWA 260954Z 25009KT 10SM FEW055 FEW200 13/09 A3011 RMK AO2 SLP192 T01330094 $
KDTW 260953Z 25005KT 10SM FEW090 SCT220 13/09 A3004 RMK AO2 SLP169 T01280089
KFDY 260953Z AUTO 25008KT 10SM CLR 13/09 A3007 RMK AO2 SLP176 T01330089 TSNO
KTDZ 260953Z AUTO 26007KT 10SM BKN065 14/11 A3005 RMK AO2 SLP174 T01440111
KTOL 260952Z 25006KT 10SM CLR 13/11 A3005 RMK AO2 SLP174 T01280106
KCLE 260951Z 21007KT 10SM FEW060 FEW090 14/09 A3006 RMK AO2 SLP176 MDT CU DSNT N-NE T01390094

alt : Satellite

alt : TFRs